Time;durP1;ratioP1;P1;durP2;ratioP2;P2;SDS_P1;SDS_P2;PMS_P1;PMS_P2;Temp;Humidity;BMP_temperature;BMP_pressure;BME280_temperature;BME280_humidity;BME280_pressure;Samples;Min_cycle;Max_cycle;Signal;HPM_P1;HPM_P2
2023/02/23 00:00:27;;;;;;;20.50;15.68;;;12.00;99.90;;;;;;5013701;28;20120;-94
2023/02/23 00:02:54;;;;;;;21.10;15.98;;;12.10;99.90;;;;;;5014158;28;20032;-93
2023/02/23 00:05:22;;;;;;;21.35;15.38;;;12.00;99.90;;;;;;5014252;28;20125;-93
2023/02/23 00:07:47;;;;;;;18.10;14.18;;;12.10;99.90;;;;;;5013889;28;20232;-93
2023/02/23 00:10:14;;;;;;;19.83;15.63;;;12.00;99.90;;;;;;5013256;28;20041;-94
2023/02/23 00:12:43;;;;;;;21.58;14.55;;;12.00;99.90;;;;;;5014564;28;20026;-93
2023/02/23 00:15:10;;;;;;;23.00;15.60;;;12.00;99.90;;;;;;4996928;28;20033;-94
2023/02/23 00:17:36;;;;;;;20.98;15.07;;;11.90;99.90;;;;;;5013805;28;20029;-94
2023/02/23 00:20:10;;;;;;;18.63;14.57;;;12.00;99.90;;;;;;4996434;28;20030;-93
2023/02/23 00:22:40;;;;;;;20.20;15.93;;;12.00;99.90;;;;;;5014471;28;20029;-93
2023/02/23 00:25:09;;;;;;;19.88;16.08;;;12.00;99.90;;;;;;5013030;28;20499;-94
2023/02/23 00:27:36;;;;;;;19.33;14.82;;;12.00;99.90;;;;;;5013173;28;20022;-93
2023/02/23 00:30:03;;;;;;;21.25;15.73;;;11.90;99.90;;;;;;5013307;28;20073;-94
2023/02/23 00:32:28;;;;;;;20.05;15.88;;;11.90;99.90;;;;;;4995585;28;20029;-94
2023/02/23 00:34:56;;;;;;;23.85;16.73;;;11.90;99.90;;;;;;5013021;28;20022;-94
2023/02/23 00:37:22;;;;;;;21.92;16.98;;;11.90;99.90;;;;;;4995468;28;20022;-94
2023/02/23 00:39:48;;;;;;;20.15;16.00;;;11.90;99.90;;;;;;4996237;28;20093;-94
2023/02/23 00:42:14;;;;;;;22.90;16.90;;;11.90;99.90;;;;;;4996168;28;20450;-93
2023/02/23 00:44:41;;;;;;;20.75;16.00;;;11.90;99.90;;;;;;5013823;28;20034;-93
2023/02/23 00:47:06;;;;;;;20.75;16.65;;;11.90;99.90;;;;;;5013065;28;20026;-93
2023/02/23 00:49:33;;;;;;;22.40;16.42;;;11.90;99.90;;;;;;5013600;28;20045;-93
2023/02/23 00:51:58;;;;;;;21.38;16.48;;;11.90;99.90;;;;;;4995882;28;20030;-94
2023/02/23 00:54:24;;;;;;;23.63;16.00;;;11.90;99.90;;;;;;4995913;28;20030;-94
2023/02/23 00:56:50;;;;;;;20.08;16.30;;;11.90;99.90;;;;;;5015191;28;20141;-94
2023/02/23 00:59:17;;;;;;;20.85;16.30;;;11.90;99.90;;;;;;5033072;28;20064;-94
2023/02/23 01:01:43;;;;;;;19.95;15.63;;;12.00;99.90;;;;;;5032723;28;20033;-93
2023/02/23 01:04:10;;;;;;;22.58;17.08;;;11.90;99.90;;;;;;5033063;28;20032;-93
2023/02/23 01:06:36;;;;;;;21.55;16.08;;;12.00;99.90;;;;;;5015417;28;20090;-93
2023/02/23 01:09:07;;;;;;;21.80;16.13;;;11.90;99.90;;;;;;5032544;28;20033;-93
2023/02/23 01:11:33;;;;;;;19.48;15.77;;;12.00;99.90;;;;;;5032498;28;20036;-93
2023/02/23 01:14:00;;;;;;;20.35;16.08;;;12.00;99.90;;;;;;5032433;28;20034;-93
2023/02/23 01:16:30;;;;;;;20.38;16.08;;;11.90;99.90;;;;;;5014378;28;20021;-94
2023/02/23 01:19:02;;;;;;;20.70;16.10;;;12.00;99.90;;;;;;5032172;28;20041;-95
2023/02/23 01:21:36;;;;;;;22.77;16.25;;;12.00;99.90;;;;;;5033725;28;20030;-94
2023/02/23 01:24:02;;;;;;;22.60;16.70;;;12.00;99.90;;;;;;4979007;28;1146462;-94
2023/02/23 01:26:30;;;;;;;20.40;16.45;;;12.00;99.90;;;;;;5036570;28;20048;-93
2023/02/23 01:29:02;;;;;;;26.38;17.65;;;12.10;99.90;;;;;;5019145;28;20047;-94
2023/02/23 01:31:29;;;;;;;19.67;16.42;;;12.00;99.90;;;;;;5036060;28;20056;-94
2023/02/23 01:33:56;;;;;;;20.55;15.68;;;12.00;99.90;;;;;;5036452;28;20036;-94
2023/02/23 01:36:22;;;;;;;20.38;15.73;;;12.00;99.90;;;;;;5037075;28;20109;-94
2023/02/23 01:38:48;;;;;;;23.23;16.17;;;11.90;99.90;;;;;;5036705;28;20026;-93
2023/02/23 01:41:14;;;;;;;22.13;16.65;;;11.90;99.90;;;;;;5027787;28;20501;-93
2023/02/23 01:44:12;;;;;;;19.60;16.92;;;11.80;99.90;;;;;;5016750;28;20061;-94
2023/02/23 01:46:41;;;;;;;25.38;17.95;;;11.80;99.90;;;;;;4975571;28;20050;-94
2023/02/23 01:49:14;;;;;;;23.02;18.50;;;11.70;99.90;;;;;;4975860;28;20034;-93
2023/02/23 01:51:47;;;;;;;24.63;18.92;;;11.70;99.90;;;;;;4975459;28;20042;-94
2023/02/23 01:54:20;;;;;;;23.60;18.63;;;11.90;99.90;;;;;;4959545;28;20023;-93
2023/02/23 01:56:56;;;;;;;21.95;17.50;;;11.80;99.90;;;;;;4976366;28;20094;-93
2023/02/23 01:59:29;;;;;;;23.25;17.88;;;11.80;99.90;;;;;;4959967;28;20130;-94
2023/02/23 02:01:55;;;;;;;20.58;16.45;;;11.70;99.90;;;;;;4959120;28;20026;-94
2023/02/23 02:04:24;;;;;;;21.45;16.30;;;11.80;99.90;;;;;;4975991;28;20026;-93
2023/02/23 02:06:52;;;;;;;20.67;17.27;;;11.80;99.90;;;;;;4975765;28;20066;-94
2023/02/23 02:09:24;;;;;;;21.75;16.95;;;11.70;99.90;;;;;;4975256;28;20119;-94
2023/02/23 02:11:52;;;;;;;24.17;17.45;;;11.70;99.90;;;;;;4976171;28;20101;-94
2023/02/23 02:14:28;;;;;;;27.70;18.02;;;11.70;99.90;;;;;;4975023;28;20061;-93
2023/02/23 02:17:09;;;;;;;23.00;16.60;;;11.70;99.90;;;;;;4975992;28;20113;-93
2023/02/23 02:20:29;;;;;;;23.50;17.40;;;11.70;99.90;;;;;;4975926;28;20054;-94
2023/02/23 02:23:18;;;;;;;18.95;16.40;;;11.70;99.90;;;;;;4990689;28;20040;-93
2023/02/23 02:26:08;;;;;;;21.67;17.20;;;11.60;99.90;;;;;;5015793;28;20034;-94
2023/02/23 02:29:11;;;;;;;23.98;18.13;;;11.60;99.90;;;;;;5015933;28;20056;-94
2023/02/23 02:32:13;;;;;;;25.45;18.45;;;11.60;99.90;;;;;;5015672;28;20049;-94
2023/02/23 02:35:17;;;;;;;22.88;17.75;;;11.60;99.90;;;;;;5015343;28;20033;-93
2023/02/23 02:37:49;;;;;;;25.23;17.38;;;11.60;99.90;;;;;;5016015;28;20386;-93
2023/02/23 02:40:27;;;;;;;22.95;17.90;;;11.50;99.90;;;;;;5016104;28;20076;-94
2023/02/23 02:43:19;;;;;;;24.33;18.45;;;11.50;99.90;;;;;;5035693;28;20108;-93
2023/02/23 02:45:52;;;;;;;23.83;18.17;;;11.60;99.90;;;;;;5035554;28;20049;-94
2023/02/23 02:48:37;;;;;;;22.17;17.83;;;11.50;99.90;;;;;;5035624;28;20083;-94
2023/02/23 02:51:08;;;;;;;22.15;17.75;;;11.50;99.90;;;;;;5035546;28;20032;-93
2023/02/23 02:53:40;;;;;;;23.88;18.05;;;11.50;99.90;;;;;;5035547;28;20036;-94
2023/02/23 02:56:07;;;;;;;23.92;19.20;;;11.50;99.90;;;;;;5035305;28;20084;-93
2023/02/23 02:58:34;;;;;;;25.98;19.60;;;11.50;99.90;;;;;;5035235;28;20033;-94
2023/02/23 04:19:32;;;;;;;32.50;24.15;;;10.60;99.90;;;;;;5013979;28;20038;-94
2023/02/23 04:21:58;;;;;;;34.78;24.75;;;10.60;99.90;;;;;;4997035;28;20029;-94
2023/02/23 04:24:23;;;;;;;34.22;25.17;;;10.60;99.90;;;;;;4996170;28;20498;-93
2023/02/23 04:26:49;;;;;;;33.78;23.98;;;10.60;99.90;;;;;;5014060;28;20025;-94
2023/02/23 04:29:15;;;;;;;31.17;24.05;;;10.60;99.90;;;;;;5014442;28;20029;-93
2023/02/23 04:31:40;;;;;;;37.17;25.70;;;10.60;99.90;;;;;;5014250;28;20026;-94
2023/02/23 04:34:07;;;;;;;30.80;25.52;;;10.60;99.90;;;;;;5014714;28;20475;-94
2023/02/23 04:36:32;;;;;;;36.28;26.27;;;10.60;99.90;;;;;;5014187;28;20041;-94
2023/02/23 04:38:58;;;;;;;33.25;26.25;;;10.50;99.90;;;;;;4996197;28;20042;-95
2023/02/23 04:41:24;;;;;;;34.38;24.38;;;10.60;99.90;;;;;;5024109;28;20037;-94
2023/02/23 04:43:49;;;;;;;30.70;24.48;;;10.50;99.90;;;;;;5016114;28;20394;-95
2023/02/23 04:46:15;;;;;;;31.17;24.80;;;10.50;99.90;;;;;;5033725;28;20026;-94
2023/02/23 04:48:41;;;;;;;32.33;25.50;;;10.60;99.90;;;;;;5033991;28;20022;-94
2023/02/23 04:51:06;;;;;;;30.67;24.90;;;10.50;99.90;;;;;;5034001;28;20014;-94
2023/02/23 04:53:32;;;;;;;36.33;26.15;;;10.50;99.90;;;;;;5033093;28;20115;-93
2023/02/23 04:55:57;;;;;;;34.47;25.70;;;10.40;99.90;;;;;;5021266;28;20032;-94
2023/02/23 04:58:23;;;;;;;31.33;25.13;;;10.40;99.90;;;;;;5000853;28;20371;-94
2023/02/23 05:00:49;;;;;;;33.85;25.33;;;10.40;99.90;;;;;;5000404;28;20033;-94
2023/02/23 05:03:16;;;;;;;34.95;25.35;;;10.40;99.90;;;;;;5000328;28;20029;-93
2023/02/23 05:05:42;;;;;;;32.53;26.05;;;10.30;99.90;;;;;;5000566;28;20029;-94
2023/02/23 05:08:07;;;;;;;35.45;25.77;;;10.30;99.90;;;;;;4999871;28;20030;-94
2023/02/23 05:10:33;;;;;;;31.15;23.83;;;10.40;99.90;;;;;;5017861;28;20092;-94
2023/02/23 05:13:00;;;;;;;34.83;24.60;;;10.20;99.90;;;;;;5017739;28;20490;-94
2023/02/23 05:15:26;;;;;;;31.83;24.75;;;10.10;99.90;;;;;;5018049;28;20495;-94
2023/02/23 05:17:53;;;;;;;35.92;26.42;;;10.00;99.90;;;;;;5000750;28;20022;-93
2023/02/23 05:20:19;;;;;;;36.90;25.30;;;10.00;99.90;;;;;;5037435;28;20046;-92
2023/02/23 05:22:45;;;;;;;37.08;25.95;;;9.90;99.90;;;;;;5017302;28;20042;-93
2023/02/23 05:25:11;;;;;;;38.85;26.10;;;9.80;99.90;;;;;;5006245;28;20457;-94
2023/02/23 05:27:37;;;;;;;35.60;25.75;;;9.70;99.90;;;;;;5001080;28;20192;-93
2023/02/23 05:30:06;;;;;;;34.58;24.98;;;9.70;99.90;;;;;;5018520;28;20120;-94
2023/02/23 05:32:32;;;;;;;35.05;24.98;;;9.60;99.90;;;;;;5018121;28;20046;-94
2023/02/23 05:34:57;;;;;;;36.13;25.25;;;9.60;99.90;;;;;;5000603;28;20030;-94
2023/02/23 05:37:23;;;;;;;33.78;24.85;;;9.60;99.90;;;;;;5018189;28;20029;-94
2023/02/23 05:39:49;;;;;;;34.90;25.00;;;9.50;99.90;;;;;;5017602;28;20113;-94
2023/02/23 05:42:14;;;;;;;33.53;24.52;;;9.50;99.90;;;;;;5000247;28;20517;-94
2023/02/23 05:44:40;;;;;;;36.30;25.75;;;9.50;99.90;;;;;;5018142;28;20105;-94
2023/02/23 05:47:05;;;;;;;34.42;25.17;;;9.50;99.90;;;;;;5017442;28;20096;-94
2023/02/23 05:49:31;;;;;;;35.28;26.15;;;9.40;99.90;;;;;;5017739;28;20076;-94
2023/02/23 05:51:57;;;;;;;36.28;26.20;;;9.40;99.90;;;;;;5017345;28;20486;-94
2023/02/23 05:54:22;;;;;;;37.22;26.67;;;9.30;99.90;;;;;;5017404;28;20461;-94
2023/02/23 05:56:48;;;;;;;35.28;25.80;;;9.30;99.90;;;;;;5017633;28;20474;-94
2023/02/23 05:59:16;;;;;;;35.03;26.10;;;9.30;99.90;;;;;;5017634;28;20049;-94
2023/02/23 06:01:41;;;;;;;34.63;26.05;;;9.30;99.90;;;;;;4999889;28;20441;-94
2023/02/23 06:04:07;;;;;;;38.50;26.63;;;9.40;99.90;;;;;;5000156;28;20022;-93
2023/02/23 06:06:33;;;;;;;35.97;25.58;;;9.30;99.90;;;;;;5017442;28;20064;-94
2023/02/23 06:09:00;;;;;;;41.30;26.40;;;9.30;99.90;;;;;;4998956;28;20029;-94
2023/02/23 06:11:25;;;;;;;36.22;25.88;;;9.20;99.90;;;;;;5017097;28;20033;-94
2023/02/23 06:13:51;;;;;;;39.17;27.75;;;9.20;99.90;;;;;;5017130;28;20018;-94
2023/02/23 06:16:17;;;;;;;35.25;28.20;;;9.10;99.90;;;;;;5000018;28;20034;-94
2023/02/23 06:18:42;;;;;;;36.70;27.02;;;9.20;99.90;;;;;;5017435;28;20064;-94
2023/02/23 06:21:08;;;;;;;39.17;26.85;;;9.30;99.90;;;;;;4998845;28;20042;-94
2023/02/23 06:23:33;;;;;;;35.85;26.77;;;9.20;99.90;;;;;;5017033;28;20045;-94
2023/02/23 06:25:59;;;;;;;39.03;26.73;;;9.30;99.90;;;;;;5017129;28;20030;-94
2023/02/23 06:28:26;;;;;;;35.08;27.15;;;9.30;99.90;;;;;;5000005;28;20062;-94
2023/02/23 06:30:53;;;;;;;33.50;26.00;;;9.20;99.90;;;;;;5016664;28;20026;-93
2023/02/23 06:33:19;;;;;;;36.30;26.80;;;9.20;99.90;;;;;;5016641;28;20032;-94
2023/02/23 06:35:45;;;;;;;34.05;25.00;;;9.20;99.90;;;;;;5016525;28;20018;-94
2023/02/23 06:38:11;;;;;;;35.40;26.45;;;9.20;99.90;;;;;;4999183;28;20034;-93
2023/02/23 06:40:38;;;;;;;34.60;26.08;;;9.10;99.90;;;;;;5019389;28;20033;-94
2023/02/23 06:43:04;;;;;;;35.55;26.13;;;9.20;99.90;;;;;;5036180;28;20095;-94
2023/02/23 06:45:30;;;;;;;37.83;25.88;;;9.10;99.90;;;;;;5017575;28;20037;-95
2023/02/23 06:47:58;;;;;;;37.55;28.38;;;9.20;99.90;;;;;;5018448;28;20342;-94
2023/02/23 06:50:24;;;;;;;38.47;27.02;;;9.20;99.90;;;;;;5017852;28;20025;-94
2023/02/23 06:52:49;;;;;;;37.33;26.92;;;9.30;99.90;;;;;;5035230;28;20026;-93
2023/02/23 06:55:15;;;;;;;34.38;25.85;;;9.30;99.90;;;;;;5035121;28;20083;-93
2023/02/23 06:57:42;;;;;;;38.42;25.42;;;9.40;99.90;;;;;;5035148;28;20028;-94
2023/02/23 07:00:09;;;;;;;36.15;25.38;;;9.30;99.90;;;;;;5034998;28;20044;-94
2023/02/23 07:02:36;;;;;;;33.75;26.75;;;9.30;99.90;;;;;;5034717;28;20105;-93
2023/02/23 07:05:03;;;;;;;38.97;26.23;;;9.40;99.90;;;;;;5016994;28;20118;-92
2023/02/23 07:07:28;;;;;;;33.15;25.73;;;9.40;99.90;;;;;;5035238;28;20029;-94
2023/02/23 07:09:54;;;;;;;39.75;26.63;;;9.50;99.90;;;;;;5034832;28;20083;-94
2023/02/23 07:12:20;;;;;;;36.25;26.95;;;9.50;99.90;;;;;;5035124;28;20071;-94
2023/02/23 07:14:45;;;;;;;37.38;25.67;;;9.50;99.90;;;;;;5017515;28;20022;-93
2023/02/23 07:17:11;;;;;;;34.72;25.77;;;9.50;99.90;;;;;;5017250;28;20025;-93
2023/02/23 07:19:37;;;;;;;33.63;24.92;;;9.60;99.90;;;;;;5016561;28;20163;-93
2023/02/23 07:22:03;;;;;;;32.13;25.45;;;9.70;99.90;;;;;;5034657;28;20131;-93
2023/02/23 07:24:29;;;;;;;34.88;25.45;;;9.80;99.90;;;;;;5016873;28;20140;-94
2023/02/23 07:26:55;;;;;;;35.28;24.83;;;10.00;99.90;;;;;;5016990;28;20148;-94
2023/02/23 07:29:22;;;;;;;35.50;25.98;;;10.10;99.90;;;;;;5035033;28;20018;-94
2023/02/23 07:31:48;;;;;;;33.17;24.98;;;10.20;99.90;;;;;;5034662;28;20045;-93
2023/02/23 07:34:14;;;;;;;31.80;24.10;;;10.30;99.90;;;;;;5034297;28;20028;-93
2023/02/23 07:36:40;;;;;;;32.72;23.98;;;10.30;99.90;;;;;;5034474;28;20033;-94
2023/02/23 07:39:06;;;;;;;31.08;24.05;;;10.40;99.90;;;;;;5034043;28;20018;-94
2023/02/23 07:41:32;;;;;;;34.30;22.73;;;10.50;99.90;;;;;;5023221;28;20409;-93
2023/02/23 07:43:58;;;;;;;27.85;22.98;;;10.80;99.90;;;;;;5014865;28;20057;-94
2023/02/23 07:46:24;;;;;;;30.45;23.83;;;11.00;99.90;;;;;;4997658;28;20033;-93
2023/02/23 07:48:50;;;;;;;30.50;21.88;;;11.30;99.90;;;;;;4996492;28;20109;-94
2023/02/23 07:51:16;;;;;;;32.03;22.75;;;11.50;99.90;;;;;;5014283;28;20053;-93
2023/02/23 07:53:43;;;;;;;34.67;26.90;;;11.80;99.90;;;;;;5014782;28;20440;-93
2023/02/23 07:56:11;;;;;;;32.85;24.88;;;11.70;99.90;;;;;;5014267;28;20080;-93
2023/02/23 07:58:41;;;;;;;32.47;24.40;;;11.60;99.90;;;;;;5015789;28;20435;-93
2023/02/23 08:01:08;;;;;;;31.00;22.85;;;11.70;99.90;;;;;;4997159;28;20034;-93
2023/02/23 08:03:33;;;;;;;26.33;21.48;;;11.70;99.90;;;;;;5014171;28;20054;-94
2023/02/23 08:05:59;;;;;;;28.08;21.15;;;11.60;99.90;;;;;;5020672;28;20080;-93
2023/02/23 08:08:26;;;;;;;23.20;20.60;;;11.70;99.90;;;;;;5017874;28;20108;-92
2023/02/23 08:10:59;;;;;;;27.67;21.10;;;11.70;99.90;;;;;;5013357;28;20061;-91
2023/02/23 08:13:25;;;;;;;24.83;20.95;;;11.70;99.90;;;;;;5014875;28;20053;-96
2023/02/23 08:15:50;;;;;;;27.92;21.20;;;11.80;99.90;;;;;;5021626;28;20620;-92
2023/02/23 08:18:16;;;;;;;26.88;20.33;;;11.80;99.90;;;;;;5032554;28;20064;-93
2023/02/23 08:20:42;;;;;;;26.45;19.33;;;11.80;99.90;;;;;;5029578;28;20398;-92
2023/02/23 08:23:07;;;;;;;26.10;20.20;;;11.90;99.90;;;;;;5023679;28;20030;-93
2023/02/23 08:25:34;;;;;;;25.17;20.65;;;12.10;99.90;;;;;;5033291;28;20125;-93
2023/02/23 08:28:03;;;;;;;27.00;20.05;;;12.10;99.90;;;;;;5015905;28;20026;-92
2023/02/23 08:30:30;;;;;;;25.17;19.88;;;12.30;99.90;;;;;;5013644;28;20096;-92
2023/02/23 08:32:56;;;;;;;26.85;20.90;;;12.40;99.90;;;;;;4999214;28;20022;-91
2023/02/23 08:35:22;;;;;;;25.35;20.38;;;12.60;99.90;;;;;;5017315;28;20026;-92
2023/02/23 08:37:48;;;;;;;23.92;20.08;;;12.80;99.90;;;;;;5017018;28;20087;-91
2023/02/23 08:40:18;;;;;;;25.50;21.13;;;13.70;99.90;;;;;;5033902;28;20041;-92
2023/02/23 08:42:44;;;;;;;25.42;21.15;;;14.40;99.90;;;;;;5017318;28;20030;-91
2023/02/23 08:45:11;;;;;;;25.98;20.10;;;15.40;99.90;;;;;;4999609;28;20589;-91
2023/02/23 08:47:36;;;;;;;24.52;20.38;;;16.60;99.90;;;;;;5004172;28;20021;-92
2023/02/23 08:50:04;;;;;;;26.10;20.77;;;17.30;99.90;;;;;;5032940;28;20032;-92
2023/02/23 08:52:30;;;;;;;24.70;20.65;;;17.30;99.90;;;;;;5028546;28;20437;-92
2023/02/23 08:54:56;;;;;;;25.00;20.63;;;17.50;99.90;;;;;;5018634;28;20501;-92
2023/02/23 08:57:22;;;;;;;25.17;21.00;;;16.70;99.90;;;;;;5036280;28;20025;-91
2023/02/23 08:59:47;;;;;;;24.67;20.13;;;16.70;99.90;;;;;;5036360;28;20045;-92
2023/02/23 09:02:14;;;;;;;25.08;20.33;;;16.70;99.90;;;;;;5018825;28;20120;-91
2023/02/23 09:04:43;;;;;;;25.00;21.42;;;16.20;99.90;;;;;;5036210;28;20033;-90
2023/02/23 09:07:14;;;;;;;25.65;20.88;;;15.80;99.90;;;;;;5036058;28;20051;-91
2023/02/23 09:09:40;;;;;;;26.95;21.30;;;15.80;99.90;;;;;;5017002;28;20490;-92
2023/02/23 09:12:06;;;;;;;24.52;20.30;;;15.90;99.90;;;;;;5026922;28;20178;-92
2023/02/23 09:14:31;;;;;;;22.83;20.40;;;16.40;99.90;;;;;;5032535;28;20033;-91
2023/02/23 09:16:57;;;;;;;25.48;20.30;;;17.00;99.90;;;;;;5029159;28;20501;-92
2023/02/23 09:19:23;;;;;;;27.08;20.75;;;16.00;99.90;;;;;;5010265;28;20561;-93
2023/02/23 09:21:48;;;;;;;55.60;42.40;;;15.20;99.90;;;;;;5000516;28;20034;-91
2023/02/23 09:24:17;;;;;;;26.75;23.60;;;14.60;99.90;;;;;;5033569;28;20053;-91
2023/02/23 09:26:43;;;;;;;26.70;21.20;;;14.10;99.90;;;;;;5004920;28;20038;-93
2023/02/23 09:29:08;;;;;;;25.65;21.58;;;14.00;99.90;;;;;;5015458;28;20044;-94
2023/02/23 09:31:34;;;;;;;25.58;21.55;;;13.90;99.90;;;;;;5016043;28;20441;-94
2023/02/23 09:34:00;;;;;;;27.30;22.70;;;13.90;99.90;;;;;;5016316;28;20037;-95
2023/02/23 09:36:26;;;;;;;26.00;20.38;;;13.90;99.90;;;;;;5015389;28;20030;-95
2023/02/23 09:38:55;;;;;;;24.92;20.52;;;14.40;99.90;;;;;;4998772;28;20184;-91
2023/02/23 09:41:39;;;;;;;26.40;20.98;;;14.90;99.90;;;;;;5024922;28;20052;-91
2023/02/23 09:44:18;;;;;;;25.75;19.60;;;15.50;99.90;;;;;;5034712;28;20022;-92
2023/02/23 09:46:58;;;;;;;27.48;19.75;;;16.30;99.90;;;;;;5035459;28;20033;-91
2023/02/23 09:49:29;;;;;;;33.28;19.05;;;16.90;99.90;;;;;;5017915;28;20021;-90
2023/02/23 09:51:59;;;;;;;27.98;18.88;;;18.00;99.90;;;;;;5004481;28;20037;-93
2023/02/23 09:54:29;;;;;;;21.48;16.73;;;18.70;99.90;;;;;;5015457;28;20018;-91
2023/02/23 09:56:57;;;;;;;17.98;15.70;;;20.00;99.90;;;;;;5023767;28;20137;-90
2023/02/23 09:59:24;;;;;;;24.30;16.88;;;21.70;99.90;;;;;;5017115;28;20026;-95
2023/02/23 10:01:52;;;;;;;25.05;14.57;;;22.90;99.90;;;;;;5035259;28;20037;-92
2023/02/23 10:04:29;;;;;;;24.13;15.40;;;23.40;99.90;;;;;;5035003;28;20025;-92
2023/02/23 10:07:01;;;;;;;25.80;15.77;;;23.90;99.90;;;;;;5017269;28;20029;-92
2023/02/23 10:09:58;;;;;;;26.63;19.52;;;22.50;99.90;;;;;;5024096;28;20496;-93
2023/02/23 10:12:42;;;;;;;33.20;20.17;;;21.00;99.90;;;;;;5029464;28;20026;-92
2023/02/23 10:15:32;;;;;;;20.48;17.75;;;19.30;99.90;;;;;;5035231;28;20029;-90
2023/02/23 10:18:13;;;;;;;21.75;17.25;;;19.20;99.90;;;;;;5020119;28;20109;-95
2023/02/23 10:20:38;;;;;;;24.00;17.10;;;20.70;99.90;;;;;;5024818;28;20076;-93
2023/02/23 10:23:10;;;;;;;22.45;17.15;;;21.30;99.90;;;;;;5014966;28;20026;-93
2023/02/23 10:25:43;;;;;;;18.85;16.83;;;22.70;99.90;;;;;;5016018;28;20042;-93
2023/02/23 10:28:17;;;;;;;20.38;16.52;;;21.00;99.90;;;;;;4997047;28;20025;-93
2023/02/23 10:30:44;;;;;;;20.08;16.98;;;19.70;99.90;;;;;;5017854;28;20034;-92
2023/02/23 10:33:19;;;;;;;18.63;16.52;;;18.80;99.90;;;;;;4998518;28;20116;-91
2023/02/23 10:35:46;;;;;;;21.13;17.58;;;18.30;99.90;;;;;;5199257;23;20076;-96
2023/02/23 10:38:15;;;;;;;21.83;17.63;;;17.90;99.90;;;;;;5048705;28;20026;-96
2023/02/23 10:40:43;;;;;;;21.73;18.48;;;17.80;99.90;;;;;;5034384;28;20045;-94
2023/02/23 10:43:11;;;;;;;20.67;17.77;;;17.50;99.90;;;;;;4994895;28;20030;-93
2023/02/23 10:45:51;;;;;;;19.52;17.38;;;17.40;99.90;;;;;;4985857;28;20033;-90
2023/02/23 10:48:31;;;;;;;19.98;17.75;;;17.20;99.90;;;;;;5007696;28;20057;-96
2023/02/23 10:51:01;;;;;;;23.77;17.38;;;17.20;99.90;;;;;;4984658;28;20030;-96
2023/02/23 10:53:35;;;;;;;22.50;17.40;;;17.60;99.90;;;;;;4995995;28;20495;-92
2023/02/23 10:56:14;;;;;;;20.80;16.98;;;17.40;99.90;;;;;;4996576;28;20021;-94
2023/02/23 10:58:48;;;;;;;21.77;17.40;;;17.80;99.90;;;;;;5019191;28;20038;-94
2023/02/23 11:01:31;;;;;;;20.95;16.38;;;18.40;99.90;;;;;;5012925;28;20096;-95
2023/02/23 11:04:20;;;;;;;19.77;16.73;;;20.10;99.90;;;;;;5012223;28;20042;-96
2023/02/23 11:07:27;;;;;;;20.92;16.52;;;19.90;99.90;;;;;;5033577;28;20014;-96
2023/02/23 11:09:54;;;;;;;19.58;16.42;;;20.50;99.90;;;;;;5028576;28;20029;-95
2023/02/23 11:12:23;;;;;;;20.55;16.95;;;20.70;99.90;;;;;;5011696;28;20022;-94
2023/02/23 11:14:51;;;;;;;22.98;19.38;;;20.00;99.90;;;;;;5016903;28;20080;-92
2023/02/23 11:17:36;;;;;;;22.60;17.80;;;20.00;99.90;;;;;;5016943;28;20033;-95
2023/02/23 11:20:24;;;;;;;27.63;24.52;;;21.10;99.90;;;;;;4996696;28;20030;-96
2023/02/23 11:22:51;;;;;;;19.70;16.02;;;23.80;99.90;;;;;;4998742;28;20098;-94
2023/02/23 11:25:26;;;;;;;16.45;14.45;;;25.00;99.90;;;;;;4989180;28;20023;-94
2023/02/23 11:27:55;;;;;;;21.83;16.02;;;25.40;99.90;;;;;;4990812;28;20030;-95
2023/02/23 11:30:28;;;;;;;19.15;16.52;;;25.20;99.90;;;;;;4999246;28;20026;-94
2023/02/23 11:33:08;;;;;;;17.73;15.82;;;26.40;99.90;;;;;;4996873;28;20038;-95
2023/02/23 11:35:34;;;;;;;17.40;15.45;;;26.70;99.90;;;;;;5014086;28;20033;-94
2023/02/23 11:38:26;;;;;;;16.42;14.75;;;26.80;99.90;;;;;;5014089;28;20034;-94
2023/02/23 11:41:06;;;;;;;18.23;15.18;;;27.10;99.90;;;;;;5013672;28;20120;-92
2023/02/23 11:43:31;;;;;;;17.48;15.35;;;24.30;99.90;;;;;;5013803;28;20022;-92
2023/02/23 11:46:00;;;;;;;17.55;14.80;;;23.00;99.90;;;;;;5013720;28;20095;-93
2023/02/23 11:48:33;;;;;;;15.32;13.73;;;23.90;99.90;;;;;;5013919;28;20141;-92
2023/02/23 11:50:59;;;;;;;16.10;14.32;;;24.90;99.90;;;;;;5009190;28;20025;-92
2023/02/23 11:53:33;;;;;;;16.33;14.65;;;23.10;99.90;;;;;;5020378;28;20039;-92
2023/02/23 11:56:06;;;;;;;16.92;14.82;;;21.60;99.90;;;;;;5008566;28;20053;-92
2023/02/23 11:59:06;;;;;;;18.17;14.73;;;21.00;99.90;;;;;;5013193;28;20045;-93
2023/02/23 12:01:48;;;;;;;18.38;15.23;;;20.40;99.90;;;;;;5013887;28;20112;-93
2023/02/23 12:04:30;;;;;;;19.23;15.52;;;21.70;99.90;;;;;;4996572;28;20371;-94
2023/02/23 12:07:41;;;;;;;20.23;15.15;;;21.30;99.90;;;;;;5013677;28;20034;-94
2023/02/23 12:10:31;;;;;;;17.98;15.25;;;21.70;99.90;;;;;;5013337;28;20060;-93
2023/02/23 12:13:01;;;;;;;15.55;13.93;;;20.40;99.90;;;;;;5013629;28;20081;-93
2023/02/23 12:15:49;;;;;;;19.27;14.20;;;20.00;99.90;;;;;;5013822;28;20022;-93
2023/02/23 12:18:18;;;;;;;20.95;16.00;;;20.30;99.90;;;;;;5013285;28;20110;-94
2023/02/23 12:20:47;;;;;;;21.33;15.15;;;19.60;99.90;;;;;;5013276;28;20038;-93
2023/02/23 12:23:18;;;;;;;19.83;15.43;;;19.00;99.90;;;;;;5013538;28;20510;-93
2023/02/23 12:25:58;;;;;;;20.30;14.93;;;18.60;99.90;;;;;;5013719;28;20060;-94
2023/02/23 12:28:41;;;;;;;22.13;15.80;;;18.10;99.90;;;;;;5013602;28;20038;-92
2023/02/23 12:31:27;;;;;;;18.40;16.42;;;17.90;99.90;;;;;;4996038;28;20056;-92
2023/02/23 12:34:00;;;;;;;19.73;15.73;;;17.30;99.90;;;;;;5013502;28;20049;-93
2023/02/23 12:36:34;;;;;;;23.35;15.05;;;17.20;99.90;;;;;;5012899;28;20081;-92
2023/02/23 12:39:23;;;;;;;16.33;13.68;;;17.00;99.90;;;;;;5013167;28;20057;-93
2023/02/23 12:42:11;;;;;;;21.15;15.80;;;17.10;99.90;;;;;;5012940;28;20589;-93
2023/02/23 12:44:48;;;;;;;18.40;15.15;;;17.50;99.90;;;;;;5013651;28;20046;-93
2023/02/23 12:47:35;;;;;;;20.98;14.98;;;20.10;99.90;;;;;;5013484;28;20077;-94
2023/02/23 12:50:12;;;;;;;17.02;13.75;;;22.70;99.90;;;;;;5013775;28;20106;-93
2023/02/23 12:52:56;;;;;;;17.60;14.57;;;24.10;99.90;;;;;;5012718;28;20042;-94
2023/02/23 12:55:41;;;;;;;17.65;13.13;;;24.80;99.90;;;;;;5013299;28;20116;-93
2023/02/23 12:58:14;;;;;;;15.30;13.13;;;25.30;99.90;;;;;;5013130;28;20029;-93
2023/02/23 13:00:57;;;;;;;17.55;13.32;;;24.10;99.90;;;;;;5013206;28;20037;-93
2023/02/23 13:03:41;;;;;;;16.38;12.98;;;22.30;99.90;;;;;;5013425;28;20014;-94
2023/02/23 13:06:21;;;;;;;16.48;12.73;;;22.40;99.90;;;;;;5013157;28;20112;-94
2023/02/23 13:09:20;;;;;;;15.90;12.70;;;23.60;99.90;;;;;;5013346;28;20034;-93
2023/02/23 13:11:56;;;;;;;18.75;12.35;;;22.90;99.90;;;;;;5013057;28;20544;-94
2023/02/23 13:14:51;;;;;;;14.82;11.85;;;21.90;99.90;;;;;;5013169;28;20034;-93
2023/02/23 13:17:35;;;;;;;16.75;12.75;;;23.50;99.90;;;;;;5013825;28;20022;-93
2023/02/23 13:20:17;;;;;;;18.77;12.13;;;22.30;99.90;;;;;;5016861;28;20242;-93
2023/02/23 13:22:59;;;;;;;16.48;12.63;;;21.50;99.90;;;;;;5016458;28;20060;-94
2023/02/23 13:25:51;;;;;;;18.50;12.82;;;22.20;99.90;;;;;;5017043;28;20034;-93
2023/02/23 13:28:37;;;;;;;16.65;12.43;;;21.50;99.90;;;;;;4918058;29;20063;-93
2023/02/23 13:31:03;;;;;;;16.48;12.82;;;21.50;99.90;;;;;;4917949;29;20493;-94
2023/02/23 13:33:33;;;;;;;17.73;12.82;;;20.70;99.90;;;;;;4918352;29;20044;-93
2023/02/23 13:36:03;;;;;;;21.33;11.82;;;20.20;99.90;;;;;;4917184;29;20052;-93
2023/02/23 13:38:38;;;;;;;20.42;12.05;;;20.00;99.90;;;;;;4917845;29;20492;-93
2023/02/23 13:41:23;;;;;;;18.35;13.25;;;19.50;99.90;;;;;;4918140;29;20251;-93
2023/02/23 13:44:00;;;;;;;17.00;13.20;;;19.20;99.90;;;;;;4918120;29;20468;-93
2023/02/23 13:46:38;;;;;;;16.88;13.15;;;18.80;99.90;;;;;;4917794;29;20036;-93
2023/02/23 13:49:32;;;;;;;17.60;13.23;;;18.60;99.90;;;;;;4917959;29;20051;-92
2023/02/23 13:52:07;;;;;;;21.00;13.70;;;19.10;99.90;;;;;;4916368;29;20047;-93
2023/02/23 13:54:35;;;;;;;17.20;12.55;;;18.70;99.90;;;;;;4917783;29;20021;-93
2023/02/23 13:57:16;;;;;;;19.38;12.52;;;18.70;99.90;;;;;;4917994;29;20039;-93
2023/02/23 13:59:44;;;;;;;16.05;12.18;;;18.60;99.90;;;;;;4917371;29;20052;-93
2023/02/23 14:02:32;;;;;;;17.55;12.68;;;18.00;99.90;;;;;;4917521;29;20107;-93
2023/02/23 14:05:19;;;;;;;16.15;12.38;;;17.80;99.90;;;;;;4953408;28;20034;-93
2023/02/23 14:07:50;;;;;;;22.23;12.27;;;17.60;99.90;;;;;;5015879;28;20105;-92